Time;durP1;ratioP1;P1;durP2;ratioP2;P2;SDS_P1;SDS_P2;PMS_P1;PMS_P2;Temp;Humidity;BMP_temperature;BMP_pressure;BME280_temperature;BME280_humidity;BME280_pressure;Samples;Min_cycle;Max_cycle;Signal;HPM_P1;HPM_P2
2021/11/17 02:26:18;;;;;;;8.65;2.22;;;22.20;62.00;;;;;;5075475;28;20019;-54
2021/11/17 02:28:58;;;;;;;4.50;1.73;;;22.30;61.90;;;;;;5075623;28;20048;-59
2021/11/17 02:31:41;;;;;;;4.90;1.67;;;22.30;61.90;;;;;;5075436;28;20367;-55
2021/11/17 02:34:27;;;;;;;4.50;1.80;;;22.40;61.30;;;;;;5075271;28;20133;-60
2021/11/17 02:37:24;;;;;;;2.80;1.48;;;22.40;61.40;;;;;;5075928;28;20422;-59
2021/11/17 02:40:12;;;;;;;2.83;1.55;;;22.50;61.40;;;;;;5071300;28;20463;-58
2021/11/17 02:42:42;;;;;;;3.53;1.73;;;22.50;61.50;;;;;;5074586;28;20510;-56
2021/11/17 02:45:13;;;;;;;3.33;1.40;;;22.60;61.20;;;;;;5075336;28;20029;-59
2021/11/17 02:48:05;;;;;;;5.90;1.50;;;22.60;61.00;;;;;;5066928;28;20039;-58
2021/11/17 02:50:56;;;;;;;5.07;1.80;;;22.60;60.70;;;;;;5071755;28;20050;-52
2021/11/17 02:53:38;;;;;;;3.45;1.90;;;22.60;60.40;;;;;;5073154;28;20048;-51
2021/11/17 02:56:23;;;;;;;4.13;1.63;;;22.60;61.10;;;;;;5071371;28;20099;-53
2021/11/17 02:59:11;;;;;;;4.03;1.70;;;22.60;61.40;;;;;;5070326;28;20047;-54
2021/11/17 03:01:48;;;;;;;5.28;1.48;;;22.60;60.80;;;;;;5070464;28;20086;-57
2021/11/17 03:04:44;;;;;;;3.80;1.60;;;22.60;60.60;;;;;;5071440;28;20051;-59
2021/11/17 03:07:45;;;;;;;3.35;1.50;;;22.60;60.80;;;;;;5067712;28;20025;-52
2021/11/17 03:10:27;;;;;;;7.93;1.65;;;22.60;61.00;;;;;;5070369;28;20086;-51
2021/11/17 03:13:19;;;;;;;5.93;1.70;;;22.70;60.90;;;;;;5068000;28;20054;-57
2021/11/17 03:16:02;;;;;;;3.72;1.70;;;22.60;61.10;;;;;;5071821;28;20556;-55
2021/11/17 03:18:47;;;;;;;5.03;1.77;;;22.60;61.20;;;;;;5065991;28;20048;-56
2021/11/17 03:21:20;;;;;;;5.53;1.67;;;22.60;61.00;;;;;;5070920;28;20394;-59
2021/11/17 03:24:06;;;;;;;6.57;2.78;;;22.70;61.20;;;;;;5071667;28;20117;-58
2021/11/17 03:27:00;;;;;;;2.72;1.42;;;22.70;61.60;;;;;;5069819;28;20081;-57
2021/11/17 03:30:13;;;;;;;4.00;1.60;;;22.70;61.90;;;;;;5070658;28;20025;-58
2021/11/17 03:32:51;;;;;;;3.25;1.58;;;22.60;62.00;;;;;;5068784;28;20028;-57
2021/11/17 03:35:30;;;;;;;6.60;1.60;;;22.70;61.70;;;;;;5070439;28;20391;-57
2021/11/17 03:38:18;;;;;;;2.75;1.35;;;22.70;61.20;;;;;;5067379;28;20044;-59
2021/11/17 03:41:11;;;;;;;4.75;1.50;;;22.70;61.90;;;;;;5070120;28;20494;-58
2021/11/17 03:43:45;;;;;;;7.65;2.42;;;22.60;61.80;;;;;;5102840;28;20107;-56
2021/11/17 03:46:43;;;;;;;5.55;3.67;;;22.60;60.10;;;;;;5069636;28;20024;-55
2021/11/17 03:49:31;;;;;;;14.40;5.97;;;22.50;60.30;;;;;;5069180;28;20029;-48
2021/11/17 03:52:09;;;;;;;12.55;3.47;;;22.60;59.50;;;;;;5066571;28;20133;-59
2021/11/17 03:54:51;;;;;;;5.72;2.65;;;22.40;59.70;;;;;;5070341;28;20020;-57
2021/11/17 03:57:42;;;;;;;6.13;2.72;;;22.40;61.70;;;;;;5064246;28;20474;-56
2021/11/17 04:00:15;;;;;;;10.40;5.85;;;22.10;61.70;;;;;;5068114;28;20020;-56
2021/11/17 04:02:59;;;;;;;8.95;4.70;;;22.20;63.10;;;;;;5069598;28;20111;-52
2021/11/17 04:06:02;;;;;;;8.63;5.68;;;22.30;63.00;;;;;;5066099;28;20318;-55
2021/11/17 04:08:50;;;;;;;9.38;5.18;;;22.40;62.90;;;;;;5062575;28;20036;-54
2021/11/17 04:11:33;;;;;;;7.53;4.60;;;22.50;62.00;;;;;;5069745;28;20035;-54
2021/11/17 04:14:18;;;;;;;6.47;4.20;;;22.50;62.50;;;;;;5065461;28;20035;-53
2021/11/17 04:17:11;;;;;;;7.95;4.72;;;22.60;62.80;;;;;;5065626;28;20064;-59
2021/11/17 04:19:53;;;;;;;7.45;4.55;;;22.60;62.40;;;;;;5067053;28;20028;-57
2021/11/17 04:22:22;;;;;;;5.80;3.97;;;22.70;62.60;;;;;;5069874;28;20031;-60
2021/11/17 04:25:09;;;;;;;6.70;4.72;;;22.70;61.80;;;;;;5069892;28;20032;-61
2021/11/17 04:28:07;;;;;;;7.05;4.45;;;22.70;62.60;;;;;;5065928;28;20116;-61
2021/11/17 04:31:04;;;;;;;10.65;4.68;;;22.70;62.70;;;;;;5067222;28;20410;-51
2021/11/17 04:33:44;;;;;;;8.32;3.85;;;22.70;62.40;;;;;;5066940;28;20495;-57
2021/11/17 04:36:36;;;;;;;6.68;4.43;;;22.70;62.80;;;;;;5067101;28;20096;-53
2021/11/17 04:39:12;;;;;;;;;;;22.60;62.60;;;;;;5068499;28;20052;-58
2021/11/17 04:42:03;;;;;;;8.45;4.22;;;22.60;62.60;;;;;;5067382;28;19912;-53
2021/11/17 04:44:36;;;;;;;7.00;4.47;;;22.70;63.00;;;;;;5065494;28;20487;-53
2021/11/17 04:47:21;;;;;;;8.52;4.03;;;22.60;63.20;;;;;;5063137;28;20036;-53
2021/11/17 04:50:10;;;;;;;7.53;3.35;;;22.70;62.70;;;;;;5069840;28;20155;-53
2021/11/17 04:52:45;;;;;;;9.20;3.80;;;22.70;62.70;;;;;;5066526;28;20469;-60
2021/11/17 04:55:31;;;;;;;9.57;2.40;;;22.50;61.90;;;;;;5068719;28;20035;-62
2021/11/17 04:58:18;;;;;;;7.18;1.67;;;21.60;63.60;;;;;;5061922;28;20033;-62
2021/11/17 05:00:48;;;;;;;8.43;2.78;;;20.90;65.60;;;;;;5067187;28;20036;-61
2021/11/17 05:03:25;;;;;;;6.85;1.95;;;21.40;64.80;;;;;;5068142;28;20456;-55
2021/11/17 05:06:07;;;;;;;12.38;2.40;;;20.80;65.80;;;;;;5068754;28;20033;-53
2021/11/17 05:08:44;;;;;;;;;;;21.10;66.10;;;;;;5066038;28;20021;-59
2021/11/17 05:11:46;;;;;;;8.13;2.03;;;21.30;63.40;;;;;;5069131;28;20272;-56
2021/11/17 05:14:44;;;;;;;7.78;2.95;;;21.30;64.30;;;;;;5041581;28;20032;-60
2021/11/17 05:17:20;;;;;;;6.53;2.50;;;21.60;65.30;;;;;;5063017;28;20053;-58
2021/11/17 05:20:35;;;;;;;7.97;3.20;;;21.70;64.10;;;;;;5068249;28;20444;-55
2021/11/17 05:23:31;;;;;;;3.60;1.88;;;22.00;64.80;;;;;;5064668;28;20060;-58
2021/11/17 05:26:11;;;;;;;9.82;2.35;;;22.10;64.00;;;;;;5053898;28;20561;-54
2021/11/17 05:29:01;;;;;;;6.72;2.55;;;22.00;63.70;;;;;;5062638;28;20049;-55
2021/11/17 05:31:56;;;;;;;6.82;1.58;;;21.00;67.20;;;;;;5064330;28;20395;-56
2021/11/17 05:34:38;;;;;;;6.70;2.22;;;20.50;68.30;;;;;;5070858;28;20119;-57
2021/11/17 05:37:30;;;;;;;5.18;2.50;;;21.30;68.10;;;;;;5068892;28;20076;-59
2021/11/17 05:40:29;;;;;;;11.68;3.45;;;21.60;66.90;;;;;;5072606;28;20028;-61
2021/11/17 05:43:24;;;;;;;8.05;2.58;;;21.60;67.40;;;;;;5072106;28;20478;-58
2021/11/17 05:46:19;;;;;;;7.82;1.60;;;22.00;66.50;;;;;;5071040;28;20044;-61
2021/11/17 05:49:05;;;;;;;6.63;2.10;;;21.60;67.50;;;;;;5073084;28;20154;-60
2021/11/17 05:51:49;;;;;;;6.40;1.60;;;21.80;67.20;;;;;;5069532;28;20078;-55
2021/11/17 05:54:32;;;;;;;8.32;2.45;;;21.90;65.90;;;;;;5074965;28;20114;-58
2021/11/17 05:57:24;;;;;;;7.65;1.77;;;21.80;66.20;;;;;;5074799;28;20037;-60
2021/11/17 06:00:05;;;;;;;5.00;1.85;;;22.00;65.20;;;;;;5074124;28;20432;-58
2021/11/17 06:03:04;;;;;;;7.93;1.93;;;21.80;66.50;;;;;;5074539;28;20478;-51
2021/11/17 06:05:31;;;;;;;6.65;2.65;;;22.00;66.10;;;;;;5073941;28;20261;-60
2021/11/17 06:07:57;;;;;;;7.88;2.53;;;22.20;66.10;;;;;;5072302;28;20025;-57
2021/11/17 06:10:36;;;;;;;8.23;2.58;;;22.30;66.60;;;;;;5072122;28;20483;-54
2021/11/17 06:13:06;;;;;;;5.00;1.80;;;22.40;65.50;;;;;;5073066;28;20032;-54
2021/11/17 06:15:35;;;;;;;9.63;1.50;;;22.40;65.90;;;;;;5073612;28;20028;-58
2021/11/17 06:18:03;;;;;;;16.90;2.55;;;22.40;65.20;;;;;;5073786;28;20186;-56
2021/11/17 06:20:31;;;;;;;10.20;2.88;;;22.40;66.60;;;;;;5072691;28;20435;-59
2021/11/17 06:23:06;;;;;;;15.73;2.30;;;22.40;66.80;;;;;;5073870;28;20017;-60
2021/11/17 06:25:37;;;;;;;9.75;1.70;;;22.40;66.10;;;;;;5074060;28;20455;-54
2021/11/17 06:28:06;;;;;;;7.43;1.92;;;22.30;66.90;;;;;;5073668;28;20082;-54
2021/11/17 06:30:43;;;;;;;12.43;2.08;;;22.50;67.30;;;;;;5074461;28;20032;-51
2021/11/17 06:33:11;;;;;;;12.07;2.55;;;22.50;67.10;;;;;;5073433;28;20044;-54
2021/11/17 06:35:40;;;;;;;12.05;2.22;;;22.40;65.40;;;;;;5072367;28;20158;-55
2021/11/17 06:38:09;;;;;;;12.38;1.67;;;22.20;66.70;;;;;;5073339;28;20059;-58
2021/11/17 06:40:43;;;;;;;13.60;1.50;;;22.20;66.30;;;;;;5074076;28;20062;-59
2021/11/17 06:43:11;;;;;;;8.55;2.00;;;22.20;67.50;;;;;;5073743;28;20048;-57
2021/11/17 06:45:46;;;;;;;14.93;3.15;;;22.30;67.20;;;;;;5072339;28;20036;-51
2021/11/17 06:48:15;;;;;;;15.55;2.80;;;22.40;68.00;;;;;;5073389;28;20035;-50
2021/11/17 06:50:46;;;;;;;12.00;2.63;;;22.30;66.40;;;;;;5074388;28;20047;-53
2021/11/17 06:53:14;;;;;;;4.70;1.65;;;22.20;66.30;;;;;;5073705;28;20040;-57
2021/11/17 06:55:42;;;;;;;15.63;2.00;;;22.20;65.90;;;;;;5073810;28;20107;-55
2021/11/17 06:58:09;;;;;;;9.48;2.13;;;22.10;68.00;;;;;;5073475;28;20123;-56
2021/11/17 07:00:40;;;;;;;10.18;2.85;;;22.20;68.90;;;;;;5073465;28;20059;-59
2021/11/17 07:03:09;;;;;;;10.30;3.13;;;22.30;68.80;;;;;;5073209;28;20025;-57
2021/11/17 07:05:38;;;;;;;13.90;2.97;;;22.40;68.00;;;;;;5073371;28;20148;-52
2021/11/17 07:08:05;;;;;;;9.63;1.90;;;22.20;67.10;;;;;;5072927;28;20027;-53
2021/11/17 07:10:35;;;;;;;6.80;1.83;;;22.20;69.30;;;;;;5073840;28;20496;-62
2021/11/17 07:13:04;;;;;;;6.45;1.77;;;22.30;68.70;;;;;;5073386;28;20085;-64
2021/11/17 07:15:32;;;;;;;5.32;2.17;;;22.10;69.30;;;;;;5073798;28;20019;-62
2021/11/17 07:18:00;;;;;;;5.18;1.65;;;21.90;67.80;;;;;;5073825;28;20047;-62
2021/11/17 07:20:30;;;;;;;4.10;1.85;;;21.90;67.10;;;;;;5074046;28;20024;-63
2021/11/17 07:22:57;;;;;;;7.40;1.80;;;21.70;65.80;;;;;;5073544;28;20032;-62
2021/11/17 07:25:25;;;;;;;7.25;2.15;;;20.90;71.40;;;;;;5073375;28;20021;-61
2021/11/17 07:27:55;;;;;;;5.68;1.73;;;20.80;68.50;;;;;;5073723;28;20025;-62
2021/11/17 07:30:26;;;;;;;4.50;1.33;;;20.80;70.10;;;;;;5073172;28;20104;-61
2021/11/17 07:32:54;;;;;;;4.65;1.45;;;21.00;74.90;;;;;;5072884;28;20024;-60
2021/11/17 07:35:24;;;;;;;9.02;1.80;;;21.00;71.60;;;;;;5073323;28;20463;-60
2021/11/17 07:37:53;;;;;;;5.35;2.30;;;20.60;70.20;;;;;;5072729;28;20111;-63
2021/11/17 07:40:20;;;;;;;11.75;1.73;;;20.40;71.50;;;;;;5073191;28;20077;-63
2021/11/17 07:42:48;;;;;;;11.57;1.73;;;20.20;72.00;;;;;;5073252;28;20028;-55
2021/11/17 07:45:15;;;;;;;8.73;2.45;;;20.60;75.90;;;;;;5072992;28;20101;-54
2021/11/17 07:47:43;;;;;;;9.80;2.00;;;21.00;74.70;;;;;;5073021;28;20127;-54
2021/11/17 07:50:11;;;;;;;16.67;2.40;;;21.00;71.20;;;;;;5072869;28;20031;-56
2021/11/17 07:52:39;;;;;;;10.98;1.92;;;21.10;72.30;;;;;;5072763;28;20075;-53
2021/11/17 07:55:10;;;;;;;6.00;1.70;;;21.20;70.30;;;;;;5073107;28;20021;-58
2021/11/17 07:57:40;;;;;;;8.77;2.47;;;21.10;71.90;;;;;;5072279;28;20174;-57
2021/11/17 08:00:13;;;;;;;5.32;1.83;;;21.20;72.40;;;;;;5072594;28;20017;-55
2021/11/17 08:02:41;;;;;;;15.15;2.20;;;21.20;72.00;;;;;;5072208;28;20020;-60
2021/11/17 08:05:10;;;;;;;6.90;1.90;;;21.10;71.80;;;;;;5072897;28;20124;-61
2021/11/17 08:07:38;;;;;;;7.60;2.30;;;21.20;73.10;;;;;;5072666;28;20025;-61
2021/11/17 08:10:16;;;;;;;12.38;3.20;;;21.10;72.40;;;;;;5072674;28;20048;-63
2021/11/17 08:12:44;;;;;;;10.05;1.85;;;20.90;73.40;;;;;;5072659;28;20139;-57
2021/11/17 08:15:14;;;;;;;9.57;1.63;;;20.80;72.20;;;;;;5063817;28;20024;-62
2021/11/17 08:17:41;;;;;;;9.57;1.60;;;20.80;71.00;;;;;;5071571;28;20043;-63
2021/11/17 08:20:12;;;;;;;9.00;1.80;;;20.70;72.70;;;;;;5072556;28;20086;-61
2021/11/17 08:22:41;;;;;;;11.93;2.35;;;20.60;72.70;;;;;;5072774;28;20139;-63
2021/11/17 08:25:10;;;;;;;11.25;1.77;;;20.80;75.50;;;;;;5071279;28;20239;-64
2021/11/17 08:27:38;;;;;;;7.53;2.17;;;20.90;75.40;;;;;;5071036;28;20059;-63
2021/11/17 08:30:10;;;;;;;14.02;2.30;;;21.00;74.10;;;;;;5072387;28;20025;-61
2021/11/17 08:32:43;;;;;;;10.90;2.25;;;21.10;74.90;;;;;;5072478;28;20052;-63
2021/11/17 08:35:13;;;;;;;6.90;2.15;;;21.00;76.20;;;;;;5072817;28;20030;-63
2021/11/17 08:37:40;;;;;;;8.07;2.28;;;21.10;76.20;;;;;;5072383;28;20036;-62
2021/11/17 08:40:12;;;;;;;6.72;1.65;;;21.20;73.80;;;;;;5072579;28;20024;-62
2021/11/17 08:42:40;;;;;;;7.35;1.33;;;21.10;72.10;;;;;;5072221;28;20135;-62
2021/11/17 08:45:09;;;;;;;7.82;2.15;;;20.90;74.40;;;;;;5071792;28;20381;-62
2021/11/17 08:47:36;;;;;;;16.02;2.47;;;20.60;72.30;;;;;;5072819;28;20036;-62
2021/11/17 08:50:07;;;;;;;8.20;1.75;;;20.60;74.50;;;;;;5072482;28;20048;-62
2021/11/17 08:52:34;;;;;;;13.38;2.65;;;20.70;73.70;;;;;;5072116;28;20109;-61
2021/11/17 08:55:02;;;;;;;6.70;2.17;;;20.70;77.60;;;;;;5072461;28;20163;-60
2021/11/17 08:57:29;;;;;;;15.40;2.55;;;20.80;75.80;;;;;;5072135;28;20028;-63
2021/11/17 08:59:56;;;;;;;18.42;2.80;;;20.80;74.70;;;;;;5072039;28;20025;-62
2021/11/17 09:02:24;;;;;;;7.85;2.10;;;20.90;78.10;;;;;;5054584;28;20407;-64
2021/11/17 09:04:51;;;;;;;19.02;2.80;;;20.90;77.00;;;;;;5072393;28;20021;-64
2021/11/17 09:07:19;;;;;;;12.05;2.65;;;20.90;77.70;;;;;;5071569;28;20024;-68
2021/11/17 09:09:46;;;;;;;18.30;2.90;;;21.00;78.00;;;;;;5074989;28;20029;-67
2021/11/17 09:12:13;;;;;;;10.77;1.67;;;21.00;77.90;;;;;;5074968;28;20029;-58
2021/11/17 09:14:41;;;;;;;8.45;2.20;;;20.90;72.30;;;;;;5075027;28;20025;-64
2021/11/17 09:17:08;;;;;;;11.70;2.22;;;20.70;76.20;;;;;;5067251;28;20040;-59
2021/11/17 09:19:37;;;;;;;9.77;2.42;;;20.80;76.10;;;;;;5071045;28;20058;-60
2021/11/17 09:22:04;;;;;;;12.90;2.45;;;20.60;74.10;;;;;;5070700;28;20043;-59
2021/11/17 09:24:32;;;;;;;8.02;1.92;;;20.60;75.40;;;;;;5070573;28;20028;-63
2021/11/17 09:27:04;;;;;;;10.85;2.00;;;20.60;74.10;;;;;;5071093;28;20082;-56
2021/11/17 09:29:34;;;;;;;8.52;1.63;;;20.30;74.70;;;;;;5071204;28;20099;-65
2021/11/17 09:32:02;;;;;;;6.68;2.17;;;20.10;74.00;;;;;;5070309;28;20039;-59
2021/11/17 09:34:29;;;;;;;7.88;1.52;;;19.90;74.70;;;;;;5071144;28;20017;-64
2021/11/17 09:36:57;;;;;;;6.55;1.60;;;20.00;75.20;;;;;;5070683;28;20044;-61
2021/11/17 09:39:24;;;;;;;10.65;1.55;;;20.00;74.60;;;;;;5070030;28;20506;-64
2021/11/17 09:41:54;;;;;;;10.18;2.25;;;20.10;74.90;;;;;;5072748;28;20119;-65
2021/11/17 09:44:28;;;;;;;5.10;1.85;;;20.10;74.50;;;;;;5068283;28;20086;-56
2021/11/17 09:46:58;;;;;;;7.88;1.98;;;20.10;74.50;;;;;;5070033;28;20032;-58
2021/11/17 09:49:34;;;;;;;9.57;1.80;;;20.20;74.10;;;;;;5073016;28;20506;-58
2021/11/17 09:52:07;;;;;;;5.22;1.88;;;20.30;74.00;;;;;;5072338;28;20409;-62
2021/11/17 09:54:43;;;;;;;7.00;1.67;;;20.40;73.80;;;;;;5068908;28;20466;-55
2021/11/17 09:57:32;;;;;;;5.47;1.60;;;20.50;73.50;;;;;;5072442;28;20487;-51
2021/11/17 10:00:18;;;;;;;5.40;1.60;;;20.50;73.00;;;;;;5072521;28;20086;-56
2021/11/17 10:03:15;;;;;;;5.03;1.30;;;20.60;72.90;;;;;;5069814;28;20048;-58
2021/11/17 10:11:31;;;;;;;4.15;1.65;;;20.70;72.50;;;;;;5072695;28;20066;-51
2021/11/17 10:14:10;;;;;;;7.15;1.55;;;20.80;73.00;;;;;;5069133;28;20063;-51
2021/11/17 10:16:39;;;;;;;6.28;1.50;;;20.80;72.50;;;;;;5072558;28;20044;-51
2021/11/17 10:19:26;;;;;;;4.07;1.48;;;20.80;72.60;;;;;;5071466;28;20020;-53
2021/11/17 10:22:19;;;;;;;3.78;1.25;;;20.80;72.60;;;;;;5069124;28;20043;-51
2021/11/17 10:24:50;;;;;;;3.58;1.13;;;20.80;72.60;;;;;;5066795;28;20040;-58
2021/11/17 10:27:28;;;;;;;6.28;1.40;;;20.80;73.50;;;;;;5069052;28;20027;-55
2021/11/17 10:29:57;;;;;;;4.40;1.55;;;20.80;73.00;;;;;;5071236;28;20047;-56
2021/11/17 10:32:38;;;;;;;5.05;1.85;;;20.80;73.10;;;;;;5072600;28;20097;-53
2021/11/17 10:35:14;;;;;;;6.03;1.63;;;20.80;73.10;;;;;;5069898;28;20490;-60
2021/11/17 10:37:47;;;;;;;5.05;1.17;;;20.80;73.20;;;;;;5072296;28;20075;-58
2021/11/17 10:40:23;;;;;;;4.53;1.23;;;20.80;72.90;;;;;;5066923;28;20115;-50
2021/11/17 10:43:05;;;;;;;6.32;1.80;;;20.80;72.90;;;;;;5069172;28;20035;-56
2021/11/17 10:45:45;;;;;;;3.72;1.27;;;20.80;72.90;;;;;;5070730;28;20028;-59
2021/11/17 10:48:51;;;;;;;3.90;1.17;;;20.80;73.10;;;;;;5069922;28;20458;-54
2021/11/17 10:51:27;;;;;;;4.60;1.40;;;20.80;72.90;;;;;;5070612;28;20052;-56
2021/11/17 10:53:57;;;;;;;8.00;2.17;;;20.80;73.00;;;;;;5066574;28;20045;-59
2021/11/17 10:56:27;;;;;;;2.70;1.42;;;20.80;73.10;;;;;;5070064;28;20049;-56
2021/11/17 10:58:57;;;;;;;4.57;1.30;;;20.80;73.10;;;;;;5071419;28;20027;-49
2021/11/17 11:01:26;;;;;;;6.28;1.25;;;20.80;73.10;;;;;;5068599;28;20391;-51
2021/11/17 11:04:26;;;;;;;2.97;1.48;;;20.80;73.10;;;;;;5071370;28;20024;-49
2021/11/17 11:07:04;;;;;;;3.17;1.08;;;20.80;73.10;;;;;;5059291;28;20043;-49
2021/11/17 11:09:54;;;;;;;4.13;1.38;;;20.80;73.10;;;;;;5071242;28;20032;-49
2021/11/17 11:12:26;;;;;;;3.53;1.13;;;20.70;73.60;;;;;;5066477;28;20033;-55
2021/11/17 11:15:12;;;;;;;6.25;1.10;;;20.80;73.20;;;;;;5066112;28;20032;-54
2021/11/17 11:18:06;;;;;;;4.35;1.00;;;20.80;73.20;;;;;;5070224;28;20040;-55
2021/11/17 11:20:35;;;;;;;4.60;1.38;;;20.70;73.20;;;;;;5067589;28;20103;-57
2021/11/17 11:23:06;;;;;;;3.22;1.35;;;20.80;73.10;;;;;;5071431;28;20025;-54
2021/11/17 11:26:07;;;;;;;4.20;1.42;;;20.80;73.10;;;;;;5068088;28;20016;-52
2021/11/17 11:28:42;;;;;;;2.38;1.10;;;20.80;73.10;;;;;;5069016;28;20020;-54
2021/11/17 11:31:09;;;;;;;2.15;0.80;;;20.80;73.10;;;;;;5070046;28;20478;-55
2021/11/17 11:33:50;;;;;;;9.35;2.40;;;20.80;73.00;;;;;;5071209;28;20021;-57
2021/11/17 11:36:24;;;;;;;5.90;1.23;;;20.80;73.80;;;;;;5067383;28;21238;-54
2021/11/17 11:39:02;;;;;;;4.85;1.05;;;20.80;73.00;;;;;;5070030;28;20149;-51
2021/11/17 11:42:03;;;;;;;5.18;1.20;;;20.80;73.00;;;;;;5067593;28;20543;-53
2021/11/17 11:44:42;;;;;;;5.00;1.20;;;20.70;73.10;;;;;;5067411;28;20033;-58
2021/11/17 11:47:09;;;;;;;4.43;1.27;;;20.80;73.10;;;;;;5068290;28;20062;-60
2021/11/17 11:49:51;;;;;;;5.22;1.30;;;20.70;73.10;;;;;;5070541;28;20031;-52
2021/11/17 11:52:24;;;;;;;3.72;1.42;;;20.70;73.10;;;;;;5070284;28;20044;-56
2021/11/17 11:54:54;;;;;;;3.50;1.25;;;20.80;73.10;;;;;;5068107;28;20036;-56
2021/11/17 11:57:33;;;;;;;6.00;1.83;;;20.70;73.00;;;;;;5072809;28;20036;-59
2021/11/17 12:00:09;;;;;;;4.82;1.38;;;20.70;73.10;;;;;;5067924;28;20422;-53
2021/11/17 12:02:45;;;;;;;3.38;1.17;;;20.70;73.20;;;;;;5067837;28;20039;-58
2021/11/17 12:05:40;;;;;;;3.63;1.13;;;20.80;73.20;;;;;;5067988;28;20648;-55
2021/11/17 12:08:19;;;;;;;6.43;1.25;;;20.70;72.90;;;;;;5067280;28;20116;-56
2021/11/17 12:11:08;;;;;;;4.35;1.17;;;20.70;73.00;;;;;;5069430;28;20471;-56
2021/11/17 12:13:41;;;;;;;1.90;0.93;;;20.70;73.10;;;;;;5067182;28;20036;-51
2021/11/17 12:16:21;;;;;;;4.07;1.42;;;20.70;73.00;;;;;;5065529;28;20091;-60
2021/11/17 12:18:57;;;;;;;4.93;1.33;;;20.70;73.20;;;;;;5070095;28;20036;-58
2021/11/17 12:21:41;;;;;;;3.40;1.00;;;20.80;73.00;;;;;;5070297;28;20066;-56
2021/11/17 12:24:14;;;;;;;3.22;1.00;;;20.70;72.90;;;;;;5066697;28;20297;-50
2021/11/17 12:26:44;;;;;;;3.88;1.10;;;20.70;72.90;;;;;;5066799;28;20391;-48
2021/11/17 12:29:14;;;;;;;6.43;1.52;;;20.70;73.00;;;;;;5069148;28;20475;-53
2021/11/17 12:32:06;;;;;;;2.75;1.10;;;20.70;72.80;;;;;;5070078;28;20043;-54
2021/11/17 12:34:49;;;;;;;6.68;1.40;;;20.70;72.80;;;;;;5069529;28;20044;-56
2021/11/17 12:37:32;;;;;;;3.88;1.10;;;20.70;73.20;;;;;;5072812;28;20043;-52
2021/11/17 12:40:16;;;;;;;3.70;1.23;;;20.70;73.00;;;;;;5072260;28;20052;-54
2021/11/17 12:42:52;;;;;;;1.98;0.75;;;20.70;72.90;;;;;;5072445;28;20383;-57
2021/11/17 12:45:59;;;;;;;4.30;1.30;;;20.70;72.90;;;;;;5072667;28;20398;-58
2021/11/17 12:48:31;;;;;;;3.80;1.10;;;20.70;72.90;;;;;;5072699;28;20075;-52
2021/11/17 12:50:57;;;;;;;;;;;20.70;73.10;;;;;;5072976;28;20025;-53
2021/11/17 12:53:34;;;;;;;3.55;1.33;;;20.60;73.00;;;;;;5072411;28;19916;-57
2021/11/17 12:56:25;;;;;;;3.50;1.13;;;20.60;73.20;;;;;;5072410;28;20024;-57
2021/11/17 12:59:12;;;;;;;2.85;1.23;;;20.60;73.10;;;;;;5072661;28;20489;-54
2021/11/17 13:01:43;;;;;;;1.80;0.93;;;20.60;73.10;;;;;;5072240;28;20037;-57
2021/11/17 13:04:14;;;;;;;2.22;1.15;;;20.60;73.00;;;;;;5070180;28;20060;-58
2021/11/17 13:06:41;;;;;;;3.15;1.17;;;20.50;72.80;;;;;;5072122;28;20059;-55
2021/11/17 13:09:11;;;;;;;3.30;0.90;;;20.50;72.70;;;;;;5072248;28;20028;-58
2021/11/17 13:11:50;;;;;;;2.85;1.10;;;20.50;72.70;;;;;;5072510;28;20025;-54
2021/11/17 13:14:25;;;;;;;3.30;0.82;;;20.50;72.60;;;;;;5072356;28;20031;-54
2021/11/17 13:16:59;;;;;;;2.47;1.15;;;20.50;72.70;;;;;;5072465;28;20532;-58
2021/11/17 13:19:35;;;;;;;2.50;1.02;;;20.50;72.60;;;;;;5072313;28;20036;-57
2021/11/17 13:22:29;;;;;;;2.17;0.85;;;20.50;72.80;;;;;;5070774;28;20025;-55
2021/11/17 13:25:21;;;;;;;1.25;0.63;;;20.50;72.80;;;;;;5072625;28;20052;-55
2021/11/17 13:27:55;;;;;;;3.13;0.82;;;20.50;72.80;;;;;;5069475;28;20040;-52
2021/11/17 13:30:39;;;;;;;3.45;0.85;;;20.40;72.80;;;;;;5062719;28;20028;-56
2021/11/17 13:33:27;;;;;;;2.47;1.05;;;20.40;72.80;;;;;;5067455;28;20036;-55
2021/11/17 13:36:12;;;;;;;2.47;1.05;;;20.40;72.80;;;;;;5069135;28;20075;-57
2021/11/17 13:39:00;;;;;;;2.97;1.17;;;20.40;72.80;;;;;;5068475;28;20036;-56
2021/11/17 13:41:27;;;;;;;3.53;1.00;;;20.40;72.80;;;;;;5067742;28;20387;-54
2021/11/17 13:43:54;;;;;;;3.38;1.20;;;20.40;72.90;;;;;;5068943;28;20036;-55
2021/11/17 13:46:22;;;;;;;2.38;1.00;;;20.40;72.90;;;;;;5069285;28;20017;-53
2021/11/17 13:48:50;;;;;;;1.52;0.80;;;20.40;72.90;;;;;;5069033;28;20036;-57
2021/11/17 13:51:26;;;;;;;1.98;0.95;;;20.40;72.90;;;;;;5067123;28;20091;-54
2021/11/17 13:53:55;;;;;;;4.82;1.30;;;20.30;72.90;;;;;;5068056;28;20056;-54
2021/11/17 13:56:30;;;;;;;2.58;1.20;;;20.30;72.90;;;;;;5072760;28;20049;-56
2021/11/17 13:58:58;;;;;;;4.13;1.00;;;20.30;72.90;;;;;;5072191;28;20029;-57
2021/11/17 14:01:26;;;;;;;2.30;1.08;;;20.30;72.90;;;;;;5069729;28;20035;-58
2021/11/17 14:03:53;;;;;;;3.20;1.25;;;20.30;73.00;;;;;;5072870;28;20043;-57
2021/11/17 14:06:22;;;;;;;3.38;1.50;;;20.30;73.10;;;;;;5073185;28;20021;-55
2021/11/17 14:08:50;;;;;;;2.17;0.85;;;20.30;73.10;;;;;;5072172;28;20495;-56
2021/11/17 14:11:19;;;;;;;2.20;1.00;;;20.30;73.70;;;;;;5069395;28;20031;-55
2021/11/17 14:13:47;;;;;;;1.50;1.00;;;20.30;73.00;;;;;;5072816;28;20060;-55
2021/11/17 14:16:17;;;;;;;2.35;0.90;;;20.30;73.00;;;;;;5070575;28;20066;-51
2021/11/17 14:18:45;;;;;;;4.13;1.30;;;20.30;73.00;;;;;;5069174;28;20087;-59
2021/11/17 14:21:14;;;;;;;5.50;1.00;;;20.30;72.90;;;;;;5066291;28;20028;-57
2021/11/17 14:23:42;;;;;;;2.67;1.27;;;20.30;73.00;;;;;;5071958;28;20032;-55
2021/11/17 14:26:13;;;;;;;1.63;0.82;;;20.30;73.10;;;;;;5072574;28;20108;-55
2021/11/17 14:28:46;;;;;;;4.40;1.20;;;20.30;73.10;;;;;;5072419;28;20025;-55
2021/11/17 14:31:24;;;;;;;3.05;1.20;;;20.30;73.10;;;;;;5068597;28;20039;-54
2021/11/17 14:34:01;;;;;;;4.13;1.30;;;20.30;73.10;;;;;;5068934;28;20093;-53
2021/11/17 14:36:35;;;;;;;2.03;1.00;;;20.20;73.10;;;;;;5073209;28;20028;-55
2021/11/17 14:39:03;;;;;;;3.63;1.25;;;20.20;73.10;;;;;;5075105;28;20028;-55
2021/11/17 14:41:31;;;;;;;2.97;0.93;;;20.20;73.00;;;;;;5075112;28;20029;-57
2021/11/17 14:43:59;;;;;;;1.70;1.00;;;20.20;73.00;;;;;;5074757;28;20067;-51
2021/11/17 14:46:26;;;;;;;2.83;1.33;;;20.20;73.00;;;;;;5074838;28;20020;-57
2021/11/17 14:48:54;;;;;;;3.85;1.02;;;20.20;73.10;;;;;;5074606;28;20058;-57
2021/11/17 14:51:22;;;;;;;4.40;1.30;;;20.20;73.00;;;;;;5074743;28;20024;-58
2021/11/17 14:53:51;;;;;;;3.72;1.30;;;20.20;73.00;;;;;;5074501;28;20053;-58
2021/11/17 14:56:19;;;;;;;2.05;0.90;;;20.20;73.10;;;;;;5074695;28;20040;-55
2021/11/17 14:58:47;;;;;;;2.58;0.80;;;20.20;73.00;;;;;;5067062;28;20045;-56
2021/11/17 15:01:20;;;;;;;2.85;1.02;;;20.20;73.00;;;;;;5070655;28;20048;-54
2021/11/17 15:03:49;;;;;;;2.25;0.93;;;20.20;73.00;;;;;;5066837;28;20039;-54
2021/11/17 15:06:18;;;;;;;3.75;1.25;;;20.20;73.00;;;;;;5068700;28;20025;-54
2021/11/17 15:08:47;;;;;;;2.13;1.02;;;20.20;73.00;;;;;;5071713;28;20045;-55
2021/11/17 15:11:14;;;;;;;3.00;0.88;;;20.20;73.00;;;;;;5070687;28;20024;-54
2021/11/17 15:13:42;;;;;;;2.13;1.05;;;20.10;73.00;;;;;;5070660;28;20576;-55
2021/11/17 15:16:11;;;;;;;1.88;1.00;;;20.20;73.10;;;;;;5071710;28;20032;-55
2021/11/17 15:18:43;;;;;;;2.45;0.90;;;20.10;73.00;;;;;;5071278;28;20052;-57
2021/11/17 15:21:12;;;;;;;3.95;1.15;;;20.10;73.10;;;;;;5071944;28;20036;-53
2021/11/17 15:23:40;;;;;;;3.45;1.40;;;20.10;73.10;;;;;;5069300;28;20029;-55
2021/11/17 15:26:07;;;;;;;4.72;1.38;;;20.10;73.00;;;;;;5070930;28;20025;-58
2021/11/17 15:28:42;;;;;;;4.45;1.88;;;20.10;73.00;;;;;;5071360;28;20120;-53
2021/11/17 15:31:15;;;;;;;2.28;0.80;;;20.10;73.00;;;;;;5070015;28;20028;-54
2021/11/17 15:33:43;;;;;;;3.38;1.10;;;20.10;73.10;;;;;;5069090;28;20103;-56
2021/11/17 15:36:11;;;;;;;2.03;1.13;;;20.10;73.00;;;;;;5070942;28;20044;-52
2021/11/17 15:38:44;;;;;;;2.08;1.10;;;20.10;73.00;;;;;;5070741;28;20033;-54
2021/11/17 15:41:14;;;;;;;2.00;0.90;;;20.10;73.00;;;;;;5070134;28;20033;-54
2021/11/17 15:43:45;;;;;;;2.85;1.08;;;20.10;73.00;;;;;;5068929;28;20028;-56
2021/11/17 15:46:13;;;;;;;3.85;1.30;;;20.10;73.00;;;;;;5070480;28;20028;-56
2021/11/17 15:48:41;;;;;;;2.53;1.27;;;20.10;73.10;;;;;;5070360;28;20025;-56
2021/11/17 15:51:26;;;;;;;3.72;1.40;;;20.10;73.10;;;;;;5070668;28;20033;-55
2021/11/17 15:53:55;;;;;;;2.97;1.20;;;20.00;73.10;;;;;;5067991;28;20053;-58
2021/11/17 15:56:26;;;;;;;3.53;1.08;;;20.00;73.10;;;;;;5070468;28;20060;-57
2021/11/17 15:58:54;;;;;;;3.15;1.02;;;20.00;73.10;;;;;;5068958;28;20507;-53
2021/11/17 16:01:21;;;;;;;2.00;0.98;;;20.00;73.10;;;;;;5065570;28;20040;-56
2021/11/17 16:03:55;;;;;;;2.10;0.90;;;20.00;73.10;;;;;;5069519;28;20082;-56